Terminal Aerodrome Forecast
Issued by NWS Charleston, SC

Home | Current Version | Previous Version | Text Only | Print | Product List | Glossary On
Versions: 1 2 3 4 5 6 7 8 9 10 11 12 13 14 15 16 17 18
000
FTUS42 KCHS 171956 AAA
TAFCHS
TAF AMD
KCHS 171956Z 1720/1818 14007KT P6SM SCT015
     FM180100 20005KT P6SM SCT025
     FM181300 01008KT P6SM SCT015 SCT025=

USA.gov is the U.S. government's official web portal to all federal, state and local government web resources and services.